sensor_id;sensor_type;location;lat;lon;timestamp;temperature;humidity
24338;DHT22;12457;50.832;4.346;2024-03-08T00:00:17;5.80;99.90
24338;DHT22;12457;50.832;4.346;2024-03-08T00:02:44;5.80;99.90
24338;DHT22;12457;50.832;4.346;2024-03-08T00:05:10;5.80;99.90
24338;DHT22;12457;50.832;4.346;2024-03-08T00:07:39;5.80;99.90
24338;DHT22;12457;50.832;4.346;2024-03-08T00:10:10;5.70;99.90
24338;DHT22;12457;50.832;4.346;2024-03-08T00:12:40;5.70;99.90
24338;DHT22;12457;50.832;4.346;2024-03-08T00:15:16;5.60;99.90
24338;DHT22;12457;50.832;4.346;2024-03-08T00:17:44;5.60;99.90
24338;DHT22;12457;50.832;4.346;2024-03-08T00:20:10;5.60;99.90
24338;DHT22;12457;50.832;4.346;2024-03-08T00:22:39;5.60;99.90
24338;DHT22;12457;50.832;4.346;2024-03-08T00:25:06;5.60;99.90
24338;DHT22;12457;50.832;4.346;2024-03-08T00:27:34;5.60;99.90
24338;DHT22;12457;50.832;4.346;2024-03-08T00:30:00;5.60;99.90
24338;DHT22;12457;50.832;4.346;2024-03-08T00:32:26;5.50;99.90
24338;DHT22;12457;50.832;4.346;2024-03-08T00:34:53;5.50;99.90
24338;DHT22;12457;50.832;4.346;2024-03-08T00:37:20;5.50;99.90
24338;DHT22;12457;50.832;4.346;2024-03-08T00:39:50;5.40;99.90
24338;DHT22;12457;50.832;4.346;2024-03-08T00:42:17;5.40;99.90
24338;DHT22;12457;50.832;4.346;2024-03-08T00:44:43;5.40;99.90
24338;DHT22;12457;50.832;4.346;2024-03-08T00:47:09;5.40;99.90
24338;DHT22;12457;50.832;4.346;2024-03-08T00:49:35;5.40;99.90
24338;DHT22;12457;50.832;4.346;2024-03-08T00:52:04;5.40;99.90
24338;DHT22;12457;50.832;4.346;2024-03-08T00:54:31;5.30;99.90
24338;DHT22;12457;50.832;4.346;2024-03-08T00:56:57;5.30;99.90
24338;DHT22;12457;50.832;4.346;2024-03-08T00:59:23;5.20;99.90
24338;DHT22;12457;50.832;4.346;2024-03-08T01:01:49;5.20;99.90
24338;DHT22;12457;50.832;4.346;2024-03-08T01:04:14;5.20;99.90
24338;DHT22;12457;50.832;4.346;2024-03-08T01:06:40;5.10;99.90
24338;DHT22;12457;50.832;4.346;2024-03-08T01:09:05;5.20;99.90
24338;DHT22;12457;50.832;4.346;2024-03-08T01:11:34;5.10;99.90
24338;DHT22;12457;50.832;4.346;2024-03-08T01:14:00;5.10;99.90
24338;DHT22;12457;50.832;4.346;2024-03-08T01:16:26;5.10;99.90
24338;DHT22;12457;50.832;4.346;2024-03-08T01:18:52;5.10;99.90
24338;DHT22;12457;50.832;4.346;2024-03-08T01:21:18;5.00;99.90
24338;DHT22;12457;50.832;4.346;2024-03-08T01:23:44;5.10;99.90
24338;DHT22;12457;50.832;4.346;2024-03-08T01:26:09;5.10;99.90
24338;DHT22;12457;50.832;4.346;2024-03-08T01:28:35;5.00;99.90
24338;DHT22;12457;50.832;4.346;2024-03-08T01:31:01;5.00;99.90
24338;DHT22;12457;50.832;4.346;2024-03-08T01:33:28;5.00;99.90
24338;DHT22;12457;50.832;4.346;2024-03-08T01:35:55;5.00;99.90
24338;DHT22;12457;50.832;4.346;2024-03-08T01:38:22;5.00;99.90
24338;DHT22;12457;50.832;4.346;2024-03-08T01:40:49;5.00;99.90
24338;DHT22;12457;50.832;4.346;2024-03-08T01:43:21;5.00;99.90
24338;DHT22;12457;50.832;4.346;2024-03-08T01:45:48;4.90;99.90
24338;DHT22;12457;50.832;4.346;2024-03-08T01:48:15;5.00;99.90
24338;DHT22;12457;50.832;4.346;2024-03-08T01:50:43;4.90;99.90
24338;DHT22;12457;50.832;4.346;2024-03-08T01:53:09;4.90;99.90
24338;DHT22;12457;50.832;4.346;2024-03-08T01:55:38;4.90;99.90
24338;DHT22;12457;50.832;4.346;2024-03-08T01:58:05;4.90;99.90
24338;DHT22;12457;50.832;4.346;2024-03-08T02:00:32;4.90;99.90
24338;DHT22;12457;50.832;4.346;2024-03-08T02:03:21;4.90;99.90
24338;DHT22;12457;50.832;4.346;2024-03-08T02:05:47;4.80;99.90
24338;DHT22;12457;50.832;4.346;2024-03-08T02:08:14;4.80;99.90
24338;DHT22;12457;50.832;4.346;2024-03-08T02:10:49;4.80;99.90
24338;DHT22;12457;50.832;4.346;2024-03-08T02:13:15;4.70;99.90
24338;DHT22;12457;50.832;4.346;2024-03-08T02:15:55;4.80;99.90
24338;DHT22;12457;50.832;4.346;2024-03-08T02:18:22;4.80;99.90
24338;DHT22;12457;50.832;4.346;2024-03-08T02:20:52;4.80;99.90
24338;DHT22;12457;50.832;4.346;2024-03-08T02:23:19;4.70;99.90
24338;DHT22;12457;50.832;4.346;2024-03-08T02:25:46;4.70;99.90
24338;DHT22;12457;50.832;4.346;2024-03-08T02:28:12;4.70;99.90
24338;DHT22;12457;50.832;4.346;2024-03-08T02:30:38;4.70;99.90
24338;DHT22;12457;50.832;4.346;2024-03-08T02:33:09;4.60;99.90
24338;DHT22;12457;50.832;4.346;2024-03-08T02:35:36;4.60;99.90
24338;DHT22;12457;50.832;4.346;2024-03-08T02:38:03;4.60;99.90
24338;DHT22;12457;50.832;4.346;2024-03-08T02:40:29;4.60;99.90
24338;DHT22;12457;50.832;4.346;2024-03-08T02:42:55;4.60;99.90
24338;DHT22;12457;50.832;4.346;2024-03-08T02:45:21;4.50;99.90
24338;DHT22;12457;50.832;4.346;2024-03-08T02:47:47;4.50;99.90
24338;DHT22;12457;50.832;4.346;2024-03-08T02:50:15;4.50;99.90
24338;DHT22;12457;50.832;4.346;2024-03-08T02:52:44;4.40;99.90
24338;DHT22;12457;50.832;4.346;2024-03-08T02:55:11;4.40;99.90
24338;DHT22;12457;50.832;4.346;2024-03-08T02:57:40;4.40;99.90
24338;DHT22;12457;50.832;4.346;2024-03-08T03:00:07;4.40;99.90
24338;DHT22;12457;50.832;4.346;2024-03-08T03:02:36;4.40;99.90
24338;DHT22;12457;50.832;4.346;2024-03-08T03:05:04;4.40;99.90
24338;DHT22;12457;50.832;4.346;2024-03-08T03:07:34;4.40;99.90
24338;DHT22;12457;50.832;4.346;2024-03-08T03:10:00;4.30;99.90
24338;DHT22;12457;50.832;4.346;2024-03-08T03:12:30;4.40;99.90
24338;DHT22;12457;50.832;4.346;2024-03-08T03:14:56;4.30;99.90
24338;DHT22;12457;50.832;4.346;2024-03-08T03:17:23;4.30;99.90
24338;DHT22;12457;50.832;4.346;2024-03-08T03:19:50;4.30;99.90
24338;DHT22;12457;50.832;4.346;2024-03-08T03:22:17;4.30;99.90
24338;DHT22;12457;50.832;4.346;2024-03-08T03:24:44;4.20;99.90
24338;DHT22;12457;50.832;4.346;2024-03-08T03:27:09;4.20;99.90
24338;DHT22;12457;50.832;4.346;2024-03-08T03:29:42;4.20;99.90
24338;DHT22;12457;50.832;4.346;2024-03-08T03:32:11;4.20;99.90
24338;DHT22;12457;50.832;4.346;2024-03-08T03:34:37;4.10;99.90
24338;DHT22;12457;50.832;4.346;2024-03-08T03:37:04;4.10;99.90
24338;DHT22;12457;50.832;4.346;2024-03-08T03:39:30;4.10;99.90
24338;DHT22;12457;50.832;4.346;2024-03-08T03:42:16;4.10;99.90
24338;DHT22;12457;50.832;4.346;2024-03-08T03:44:45;4.10;99.90
24338;DHT22;12457;50.832;4.346;2024-03-08T03:47:10;4.10;99.90
24338;DHT22;12457;50.832;4.346;2024-03-08T03:49:36;4.00;99.90
24338;DHT22;12457;50.832;4.346;2024-03-08T03:52:02;4.00;99.90
24338;DHT22;12457;50.832;4.346;2024-03-08T03:54:30;4.00;99.90
24338;DHT22;12457;50.832;4.346;2024-03-08T03:56:56;4.00;99.90
24338;DHT22;12457;50.832;4.346;2024-03-08T03:59:22;4.00;99.90
24338;DHT22;12457;50.832;4.346;2024-03-08T04:01:48;4.00;99.90
24338;DHT22;12457;50.832;4.346;2024-03-08T04:04:15;4.00;99.90
24338;DHT22;12457;50.832;4.346;2024-03-08T04:06:42;3.90;99.90
24338;DHT22;12457;50.832;4.346;2024-03-08T04:09:09;3.90;99.90
24338;DHT22;12457;50.832;4.346;2024-03-08T04:11:35;3.90;99.90
24338;DHT22;12457;50.832;4.346;2024-03-08T04:14:00;3.80;99.90
24338;DHT22;12457;50.832;4.346;2024-03-08T04:16:26;3.80;99.90
24338;DHT22;12457;50.832;4.346;2024-03-08T04:19:23;3.80;99.90
24338;DHT22;12457;50.832;4.346;2024-03-08T04:21:49;3.80;99.90
24338;DHT22;12457;50.832;4.346;2024-03-08T04:24:15;3.80;99.90
24338;DHT22;12457;50.832;4.346;2024-03-08T04:26:42;3.70;99.90
24338;DHT22;12457;50.832;4.346;2024-03-08T04:29:08;3.70;99.90
24338;DHT22;12457;50.832;4.346;2024-03-08T04:31:34;3.70;99.90
24338;DHT22;12457;50.832;4.346;2024-03-08T04:34:01;3.70;99.90
24338;DHT22;12457;50.832;4.346;2024-03-08T04:36:27;3.70;99.90
24338;DHT22;12457;50.832;4.346;2024-03-08T04:38:53;3.70;99.90
24338;DHT22;12457;50.832;4.346;2024-03-08T04:41:20;3.70;99.90
24338;DHT22;12457;50.832;4.346;2024-03-08T04:43:46;3.70;99.90
24338;DHT22;12457;50.832;4.346;2024-03-08T04:46:12;3.60;99.90
24338;DHT22;12457;50.832;4.346;2024-03-08T04:48:39;3.70;99.90
24338;DHT22;12457;50.832;4.346;2024-03-08T04:51:07;3.60;99.90
24338;DHT22;12457;50.832;4.346;2024-03-08T04:53:33;3.60;99.90
24338;DHT22;12457;50.832;4.346;2024-03-08T04:55:59;3.60;99.90
24338;DHT22;12457;50.832;4.346;2024-03-08T04:58:25;3.50;99.90
24338;DHT22;12457;50.832;4.346;2024-03-08T05:00:51;3.50;99.90
24338;DHT22;12457;50.832;4.346;2024-03-08T05:03:17;3.50;99.90
24338;DHT22;12457;50.832;4.346;2024-03-08T05:05:45;3.50;99.90
24338;DHT22;12457;50.832;4.346;2024-03-08T05:08:11;3.50;99.90
24338;DHT22;12457;50.832;4.346;2024-03-08T05:10:37;3.40;99.90
24338;DHT22;12457;50.832;4.346;2024-03-08T05:13:02;3.40;99.90
24338;DHT22;12457;50.832;4.346;2024-03-08T05:15:28;3.50;99.90
24338;DHT22;12457;50.832;4.346;2024-03-08T05:17:54;3.40;99.90
24338;DHT22;12457;50.832;4.346;2024-03-08T05:20:21;3.50;99.90
24338;DHT22;12457;50.832;4.346;2024-03-08T05:22:47;3.50;99.90
24338;DHT22;12457;50.832;4.346;2024-03-08T05:25:13;3.40;99.90
24338;DHT22;12457;50.832;4.346;2024-03-08T05:27:40;3.40;99.90
24338;DHT22;12457;50.832;4.346;2024-03-08T05:30:06;3.40;99.90
24338;DHT22;12457;50.832;4.346;2024-03-08T05:32:32;3.40;99.90
24338;DHT22;12457;50.832;4.346;2024-03-08T05:34:57;3.40;99.90
24338;DHT22;12457;50.832;4.346;2024-03-08T05:37:23;3.40;99.90
24338;DHT22;12457;50.832;4.346;2024-03-08T05:39:49;3.40;99.90
24338;DHT22;12457;50.832;4.346;2024-03-08T05:42:14;3.40;99.90
24338;DHT22;12457;50.832;4.346;2024-03-08T05:44:40;3.40;99.90
24338;DHT22;12457;50.832;4.346;2024-03-08T05:47:06;3.30;99.90
24338;DHT22;12457;50.832;4.346;2024-03-08T05:49:33;3.30;99.90
24338;DHT22;12457;50.832;4.346;2024-03-08T05:51:59;3.30;99.90
24338;DHT22;12457;50.832;4.346;2024-03-08T05:54:25;3.30;99.90
24338;DHT22;12457;50.832;4.346;2024-03-08T05:56:52;3.30;99.90
24338;DHT22;12457;50.832;4.346;2024-03-08T05:59:18;3.30;99.90
24338;DHT22;12457;50.832;4.346;2024-03-08T06:01:44;3.30;99.90
24338;DHT22;12457;50.832;4.346;2024-03-08T06:04:11;3.30;99.90
24338;DHT22;12457;50.832;4.346;2024-03-08T06:06:38;3.30;99.90
24338;DHT22;12457;50.832;4.346;2024-03-08T06:09:05;3.30;99.90
24338;DHT22;12457;50.832;4.346;2024-03-08T06:11:42;3.20;99.90
24338;DHT22;12457;50.832;4.346;2024-03-08T06:14:08;3.30;99.90
24338;DHT22;12457;50.832;4.346;2024-03-08T06:16:34;3.30;99.90
24338;DHT22;12457;50.832;4.346;2024-03-08T06:19:01;3.30;99.90
24338;DHT22;12457;50.832;4.346;2024-03-08T06:21:28;3.30;99.90
24338;DHT22;12457;50.832;4.346;2024-03-08T06:23:54;3.30;99.90
24338;DHT22;12457;50.832;4.346;2024-03-08T06:26:23;3.40;99.90
24338;DHT22;12457;50.832;4.346;2024-03-08T06:28:50;3.40;99.90
24338;DHT22;12457;50.832;4.346;2024-03-08T06:31:16;3.40;99.90
24338;DHT22;12457;50.832;4.346;2024-03-08T06:33:42;3.30;99.90
24338;DHT22;12457;50.832;4.346;2024-03-08T06:36:41;3.40;99.90
24338;DHT22;12457;50.832;4.346;2024-03-08T06:39:07;3.40;99.90
24338;DHT22;12457;50.832;4.346;2024-03-08T06:41:38;3.40;99.90
24338;DHT22;12457;50.832;4.346;2024-03-08T06:44:04;3.40;99.90
24338;DHT22;12457;50.832;4.346;2024-03-08T06:46:30;3.50;99.90
24338;DHT22;12457;50.832;4.346;2024-03-08T06:48:56;3.50;99.90
24338;DHT22;12457;50.832;4.346;2024-03-08T06:51:22;3.50;99.90
24338;DHT22;12457;50.832;4.346;2024-03-08T06:53:47;3.50;99.90
24338;DHT22;12457;50.832;4.346;2024-03-08T06:56:14;3.50;99.90
24338;DHT22;12457;50.832;4.346;2024-03-08T06:58:41;3.50;99.90
24338;DHT22;12457;50.832;4.346;2024-03-08T07:01:08;3.50;99.90
24338;DHT22;12457;50.832;4.346;2024-03-08T07:03:41;3.60;99.90
24338;DHT22;12457;50.832;4.346;2024-03-08T07:06:10;3.60;99.90
24338;DHT22;12457;50.832;4.346;2024-03-08T07:08:36;3.60;99.90
24338;DHT22;12457;50.832;4.346;2024-03-08T07:11:01;3.70;99.90
24338;DHT22;12457;50.832;4.346;2024-03-08T07:13:29;3.70;99.90
24338;DHT22;12457;50.832;4.346;2024-03-08T07:15:55;3.60;99.90
24338;DHT22;12457;50.832;4.346;2024-03-08T07:18:20;3.70;99.90
24338;DHT22;12457;50.832;4.346;2024-03-08T07:20:47;3.70;99.90
24338;DHT22;12457;50.832;4.346;2024-03-08T07:23:14;3.80;99.90
24338;DHT22;12457;50.832;4.346;2024-03-08T07:26:00;3.80;99.90
24338;DHT22;12457;50.832;4.346;2024-03-08T07:28:26;3.80;99.90
24338;DHT22;12457;50.832;4.346;2024-03-08T07:30:53;3.90;99.90
24338;DHT22;12457;50.832;4.346;2024-03-08T07:33:27;3.90;99.90
24338;DHT22;12457;50.832;4.346;2024-03-08T07:35:52;3.90;99.90
24338;DHT22;12457;50.832;4.346;2024-03-08T07:38:18;4.00;99.90
24338;DHT22;12457;50.832;4.346;2024-03-08T07:40:46;4.00;99.90
24338;DHT22;12457;50.832;4.346;2024-03-08T07:43:13;4.00;99.90
24338;DHT22;12457;50.832;4.346;2024-03-08T07:45:39;4.20;99.90
24338;DHT22;12457;50.832;4.346;2024-03-08T07:48:06;4.20;99.90
24338;DHT22;12457;50.832;4.346;2024-03-08T07:50:38;4.30;99.90
24338;DHT22;12457;50.832;4.346;2024-03-08T07:53:05;4.30;99.90
24338;DHT22;12457;50.832;4.346;2024-03-08T07:55:33;4.40;99.90
24338;DHT22;12457;50.832;4.346;2024-03-08T07:58:00;4.50;99.90
24338;DHT22;12457;50.832;4.346;2024-03-08T08:00:26;4.50;99.90
24338;DHT22;12457;50.832;4.346;2024-03-08T08:02:53;4.60;99.90
24338;DHT22;12457;50.832;4.346;2024-03-08T08:05:35;4.70;99.90
24338;DHT22;12457;50.832;4.346;2024-03-08T08:08:05;4.80;99.90
24338;DHT22;12457;50.832;4.346;2024-03-08T08:10:33;4.80;99.90
24338;DHT22;12457;50.832;4.346;2024-03-08T08:12:59;4.90;99.90
24338;DHT22;12457;50.832;4.346;2024-03-08T08:15:24;5.00;99.90
24338;DHT22;12457;50.832;4.346;2024-03-08T08:17:50;5.10;99.90
24338;DHT22;12457;50.832;4.346;2024-03-08T08:20:45;5.10;99.90
24338;DHT22;12457;50.832;4.346;2024-03-08T08:23:11;5.20;99.90
24338;DHT22;12457;50.832;4.346;2024-03-08T08:25:37;5.30;99.90
24338;DHT22;12457;50.832;4.346;2024-03-08T08:28:03;5.30;99.90
24338;DHT22;12457;50.832;4.346;2024-03-08T08:30:29;5.40;99.90
24338;DHT22;12457;50.832;4.346;2024-03-08T08:32:55;5.50;99.90
24338;DHT22;12457;50.832;4.346;2024-03-08T08:35:23;5.50;99.90
24338;DHT22;12457;50.832;4.346;2024-03-08T08:37:49;5.50;99.90
24338;DHT22;12457;50.832;4.346;2024-03-08T08:40:15;5.50;99.90
24338;DHT22;12457;50.832;4.346;2024-03-08T08:42:44;5.70;99.90
24338;DHT22;12457;50.832;4.346;2024-03-08T08:45:11;5.70;99.90
24338;DHT22;12457;50.832;4.346;2024-03-08T08:47:37;5.80;99.90
24338;DHT22;12457;50.832;4.346;2024-03-08T08:50:03;6.00;99.90
24338;DHT22;12457;50.832;4.346;2024-03-08T08:52:50;6.10;99.90
24338;DHT22;12457;50.832;4.346;2024-03-08T08:55:16;6.10;99.90
24338;DHT22;12457;50.832;4.346;2024-03-08T08:57:46;6.20;99.90
24338;DHT22;12457;50.832;4.346;2024-03-08T09:00:13;6.30;99.90
24338;DHT22;12457;50.832;4.346;2024-03-08T09:02:41;6.50;99.90
24338;DHT22;12457;50.832;4.346;2024-03-08T09:05:08;6.50;99.90
24338;DHT22;12457;50.832;4.346;2024-03-08T09:07:34;6.50;99.90
24338;DHT22;12457;50.832;4.346;2024-03-08T09:10:03;6.50;99.90
24338;DHT22;12457;50.832;4.346;2024-03-08T09:12:29;6.60;99.90
24338;DHT22;12457;50.832;4.346;2024-03-08T09:14:54;6.70;99.90
24338;DHT22;12457;50.832;4.346;2024-03-08T09:17:20;6.70;99.90
24338;DHT22;12457;50.832;4.346;2024-03-08T09:19:49;6.70;99.90
24338;DHT22;12457;50.832;4.346;2024-03-08T09:22:24;6.80;99.90
24338;DHT22;12457;50.832;4.346;2024-03-08T09:24:50;6.90;99.90
24338;DHT22;12457;50.832;4.346;2024-03-08T09:27:16;7.00;99.90
24338;DHT22;12457;50.832;4.346;2024-03-08T09:29:43;7.10;99.90
24338;DHT22;12457;50.832;4.346;2024-03-08T09:32:10;7.20;99.90
24338;DHT22;12457;50.832;4.346;2024-03-08T09:34:37;7.30;99.90
24338;DHT22;12457;50.832;4.346;2024-03-08T09:37:11;7.20;99.90
24338;DHT22;12457;50.832;4.346;2024-03-08T09:39:38;7.30;99.90
24338;DHT22;12457;50.832;4.346;2024-03-08T09:42:05;7.40;99.90
24338;DHT22;12457;50.832;4.346;2024-03-08T09:44:31;7.50;99.90
24338;DHT22;12457;50.832;4.346;2024-03-08T09:46:58;7.60;99.90
24338;DHT22;12457;50.832;4.346;2024-03-08T09:49:24;7.70;99.90
24338;DHT22;12457;50.832;4.346;2024-03-08T09:51:50;7.80;99.90
24338;DHT22;12457;50.832;4.346;2024-03-08T09:54:18;7.70;99.90
24338;DHT22;12457;50.832;4.346;2024-03-08T09:56:47;7.70;99.90
24338;DHT22;12457;50.832;4.346;2024-03-08T09:59:14;7.80;99.90
24338;DHT22;12457;50.832;4.346;2024-03-08T10:01:48;7.80;99.90
24338;DHT22;12457;50.832;4.346;2024-03-08T10:04:14;7.90;99.90
24338;DHT22;12457;50.832;4.346;2024-03-08T10:06:41;8.00;99.90
24338;DHT22;12457;50.832;4.346;2024-03-08T10:09:07;8.10;99.90
24338;DHT22;12457;50.832;4.346;2024-03-08T10:11:33;8.10;99.90
24338;DHT22;12457;50.832;4.346;2024-03-08T10:14:00;8.20;99.90
24338;DHT22;12457;50.832;4.346;2024-03-08T10:16:30;8.30;99.90
24338;DHT22;12457;50.832;4.346;2024-03-08T10:18:59;8.50;99.90
24338;DHT22;12457;50.832;4.346;2024-03-08T10:21:26;8.50;99.90
24338;DHT22;12457;50.832;4.346;2024-03-08T10:23:52;8.50;99.90
24338;DHT22;12457;50.832;4.346;2024-03-08T10:26:19;8.60;99.90
24338;DHT22;12457;50.832;4.346;2024-03-08T10:28:51;8.60;99.90
24338;DHT22;12457;50.832;4.346;2024-03-08T10:31:19;8.70;99.90
24338;DHT22;12457;50.832;4.346;2024-03-08T10:33:48;8.80;99.90
24338;DHT22;12457;50.832;4.346;2024-03-08T10:36:17;8.90;99.90
24338;DHT22;12457;50.832;4.346;2024-03-08T10:38:45;9.00;99.90
24338;DHT22;12457;50.832;4.346;2024-03-08T10:41:17;8.90;99.90
24338;DHT22;12457;50.832;4.346;2024-03-08T10:47:02;9.10;99.90
24338;DHT22;12457;50.832;4.346;2024-03-08T10:49:54;9.20;99.90
24338;DHT22;12457;50.832;4.346;2024-03-08T10:52:21;9.20;99.90
24338;DHT22;12457;50.832;4.346;2024-03-08T10:54:48;9.30;99.90
24338;DHT22;12457;50.832;4.346;2024-03-08T10:57:17;9.30;99.90
24338;DHT22;12457;50.832;4.346;2024-03-08T10:59:47;9.40;99.90
24338;DHT22;12457;50.832;4.346;2024-03-08T11:02:16;9.60;99.90
24338;DHT22;12457;50.832;4.346;2024-03-08T11:04:50;9.60;99.90
24338;DHT22;12457;50.832;4.346;2024-03-08T11:07:34;9.60;99.90
24338;DHT22;12457;50.832;4.346;2024-03-08T11:10:02;9.70;99.90
24338;DHT22;12457;50.832;4.346;2024-03-08T11:12:37;9.90;99.90
24338;DHT22;12457;50.832;4.346;2024-03-08T11:15:12;9.80;99.90
24338;DHT22;12457;50.832;4.346;2024-03-08T11:17:46;9.80;99.90
24338;DHT22;12457;50.832;4.346;2024-03-08T11:20:19;9.70;99.90
24338;DHT22;12457;50.832;4.346;2024-03-08T11:22:56;9.70;99.90
24338;DHT22;12457;50.832;4.346;2024-03-08T11:25:40;9.90;99.90
24338;DHT22;12457;50.832;4.346;2024-03-08T11:28:19;10.00;99.90
24338;DHT22;12457;50.832;4.346;2024-03-08T11:33:29;10.10;99.90
24338;DHT22;12457;50.832;4.346;2024-03-08T11:36:10;10.20;99.90
24338;DHT22;12457;50.832;4.346;2024-03-08T11:38:44;10.30;99.90
24338;DHT22;12457;50.832;4.346;2024-03-08T11:41:10;10.40;99.90
24338;DHT22;12457;50.832;4.346;2024-03-08T11:43:40;10.40;99.90
24338;DHT22;12457;50.832;4.346;2024-03-08T11:46:11;10.40;99.90
24338;DHT22;12457;50.832;4.346;2024-03-08T11:48:40;10.50;99.90
24338;DHT22;12457;50.832;4.346;2024-03-08T11:51:13;10.50;99.90
24338;DHT22;12457;50.832;4.346;2024-03-08T11:53:43;10.70;99.90
24338;DHT22;12457;50.832;4.346;2024-03-08T11:56:10;10.80;99.90
24338;DHT22;12457;50.832;4.346;2024-03-08T11:58:37;10.90;99.90
24338;DHT22;12457;50.832;4.346;2024-03-08T12:01:10;10.90;99.90
24338;DHT22;12457;50.832;4.346;2024-03-08T12:03:42;10.80;99.90
24338;DHT22;12457;50.832;4.346;2024-03-08T12:06:11;10.90;99.90
24338;DHT22;12457;50.832;4.346;2024-03-08T12:08:47;10.80;99.90
24338;DHT22;12457;50.832;4.346;2024-03-08T12:11:20;11.00;99.90
24338;DHT22;12457;50.832;4.346;2024-03-08T12:13:50;11.00;99.90
24338;DHT22;12457;50.832;4.346;2024-03-08T12:16:17;10.90;99.90
24338;DHT22;12457;50.832;4.346;2024-03-08T12:18:51;11.00;99.90
24338;DHT22;12457;50.832;4.346;2024-03-08T12:21:19;11.10;99.90
24338;DHT22;12457;50.832;4.346;2024-03-08T12:24:18;11.20;99.90
24338;DHT22;12457;50.832;4.346;2024-03-08T12:26:47;11.30;99.90
24338;DHT22;12457;50.832;4.346;2024-03-08T12:29:27;11.30;99.90
24338;DHT22;12457;50.832;4.346;2024-03-08T12:31:54;11.40;99.90
24338;DHT22;12457;50.832;4.346;2024-03-08T12:34:21;11.40;99.90
24338;DHT22;12457;50.832;4.346;2024-03-08T12:36:48;11.50;99.90
24338;DHT22;12457;50.832;4.346;2024-03-08T12:39:19;11.50;99.90
24338;DHT22;12457;50.832;4.346;2024-03-08T12:41:55;11.70;99.90
24338;DHT22;12457;50.832;4.346;2024-03-08T12:44:22;11.80;99.90
24338;DHT22;12457;50.832;4.346;2024-03-08T12:46:48;11.80;99.90
24338;DHT22;12457;50.832;4.346;2024-03-08T12:49:15;11.90;99.90
24338;DHT22;12457;50.832;4.346;2024-03-08T12:51:46;11.90;99.90
24338;DHT22;12457;50.832;4.346;2024-03-08T12:54:12;11.80;99.90
24338;DHT22;12457;50.832;4.346;2024-03-08T12:56:38;11.80;99.90
24338;DHT22;12457;50.832;4.346;2024-03-08T12:59:06;11.90;99.90
24338;DHT22;12457;50.832;4.346;2024-03-08T13:01:34;12.00;99.90
24338;DHT22;12457;50.832;4.346;2024-03-08T13:04:05;12.10;99.90
24338;DHT22;12457;50.832;4.346;2024-03-08T13:06:32;12.20;99.90
24338;DHT22;12457;50.832;4.346;2024-03-08T13:09:01;12.20;99.90
24338;DHT22;12457;50.832;4.346;2024-03-08T13:11:31;12.20;99.90
24338;DHT22;12457;50.832;4.346;2024-03-08T13:14:04;12.20;99.80
24338;DHT22;12457;50.832;4.346;2024-03-08T13:16:33;12.20;99.90
24338;DHT22;12457;50.832;4.346;2024-03-08T13:19:02;12.30;99.90
24338;DHT22;12457;50.832;4.346;2024-03-08T13:21:28;12.30;99.60
24338;DHT22;12457;50.832;4.346;2024-03-08T13:24:14;12.40;99.80
24338;DHT22;12457;50.832;4.346;2024-03-08T13:26:42;12.40;99.40
24338;DHT22;12457;50.832;4.346;2024-03-08T13:29:09;12.40;99.20
24338;DHT22;12457;50.832;4.346;2024-03-08T13:31:35;12.50;99.40
24338;DHT22;12457;50.832;4.346;2024-03-08T13:34:01;12.50;99.00
24338;DHT22;12457;50.832;4.346;2024-03-08T13:36:29;12.60;98.80
24338;DHT22;12457;50.832;4.346;2024-03-08T13:39:04;12.70;98.60
24338;DHT22;12457;50.832;4.346;2024-03-08T13:41:52;12.70;98.00
24338;DHT22;12457;50.832;4.346;2024-03-08T13:44:18;12.70;97.90
24338;DHT22;12457;50.832;4.346;2024-03-08T13:46:46;12.80;97.70
24338;DHT22;12457;50.832;4.346;2024-03-08T13:49:20;12.80;97.50
24338;DHT22;12457;50.832;4.346;2024-03-08T13:51:46;12.80;97.70
24338;DHT22;12457;50.832;4.346;2024-03-08T13:54:11;12.80;97.20
24338;DHT22;12457;50.832;4.346;2024-03-08T13:56:37;12.80;97.20
24338;DHT22;12457;50.832;4.346;2024-03-08T13:59:03;12.90;97.30
24338;DHT22;12457;50.832;4.346;2024-03-08T14:01:33;13.00;96.80
24338;DHT22;12457;50.832;4.346;2024-03-08T14:04:01;12.90;96.60
24338;DHT22;12457;50.832;4.346;2024-03-08T14:06:28;12.90;96.80
24338;DHT22;12457;50.832;4.346;2024-03-08T14:08:54;12.90;96.60
24338;DHT22;12457;50.832;4.346;2024-03-08T14:11:22;12.90;96.50
24338;DHT22;12457;50.832;4.346;2024-03-08T14:13:49;12.80;96.30
24338;DHT22;12457;50.832;4.346;2024-03-08T14:16:15;12.90;96.40
24338;DHT22;12457;50.832;4.346;2024-03-08T14:18:41;12.90;96.20
24338;DHT22;12457;50.832;4.346;2024-03-08T14:21:07;13.00;96.20
24338;DHT22;12457;50.832;4.346;2024-03-08T14:23:36;13.00;96.10
24338;DHT22;12457;50.832;4.346;2024-03-08T14:26:04;13.00;96.10
24338;DHT22;12457;50.832;4.346;2024-03-08T14:28:32;13.00;96.20
24338;DHT22;12457;50.832;4.346;2024-03-08T14:30:58;13.10;95.90
24338;DHT22;12457;50.832;4.346;2024-03-08T14:33:24;13.10;95.90
24338;DHT22;12457;50.832;4.346;2024-03-08T14:35:54;13.10;95.60
24338;DHT22;12457;50.832;4.346;2024-03-08T14:38:19;13.20;95.80
24338;DHT22;12457;50.832;4.346;2024-03-08T14:41:03;13.20;95.30
24338;DHT22;12457;50.832;4.346;2024-03-08T14:43:44;13.20;95.40
24338;DHT22;12457;50.832;4.346;2024-03-08T14:46:18;13.30;95.60
24338;DHT22;12457;50.832;4.346;2024-03-08T14:48:47;13.30;95.30
24338;DHT22;12457;50.832;4.346;2024-03-08T14:51:13;13.30;94.90
24338;DHT22;12457;50.832;4.346;2024-03-08T14:56:49;13.40;95.00
24338;DHT22;12457;50.832;4.346;2024-03-08T14:59:31;13.40;94.80
24338;DHT22;12457;50.832;4.346;2024-03-08T15:01:56;13.40;94.70
24338;DHT22;12457;50.832;4.346;2024-03-08T15:04:23;13.40;94.40
24338;DHT22;12457;50.832;4.346;2024-03-08T15:06:49;13.50;94.50
24338;DHT22;12457;50.832;4.346;2024-03-08T15:09:16;13.40;93.80
24338;DHT22;12457;50.832;4.346;2024-03-08T15:11:47;13.40;94.10
24338;DHT22;12457;50.832;4.346;2024-03-08T15:14:15;13.40;94.40
24338;DHT22;12457;50.832;4.346;2024-03-08T15:16:45;13.30;94.40
24338;DHT22;12457;50.832;4.346;2024-03-08T15:19:14;13.30;94.30
24338;DHT22;12457;50.832;4.346;2024-03-08T15:21:41;13.30;94.40
24338;DHT22;12457;50.832;4.346;2024-03-08T15:24:12;13.40;94.40
24338;DHT22;12457;50.832;4.346;2024-03-08T15:26:43;13.30;94.20
24338;DHT22;12457;50.832;4.346;2024-03-08T15:29:09;13.40;94.40
24338;DHT22;12457;50.832;4.346;2024-03-08T15:31:36;13.30;94.40
24338;DHT22;12457;50.832;4.346;2024-03-08T15:34:03;13.30;94.40
24338;DHT22;12457;50.832;4.346;2024-03-08T15:36:35;13.30;94.70
24338;DHT22;12457;50.832;4.346;2024-03-08T15:39:37;13.30;94.70
24338;DHT22;12457;50.832;4.346;2024-03-08T15:42:04;13.30;94.70
24338;DHT22;12457;50.832;4.346;2024-03-08T15:44:39;13.30;95.00
24338;DHT22;12457;50.832;4.346;2024-03-08T15:47:08;13.30;94.90
24338;DHT22;12457;50.832;4.346;2024-03-08T15:49:36;13.30;94.80
24338;DHT22;12457;50.832;4.346;2024-03-08T15:52:02;13.20;94.80
24338;DHT22;12457;50.832;4.346;2024-03-08T15:54:46;13.20;94.90
24338;DHT22;12457;50.832;4.346;2024-03-08T15:57:12;13.30;95.00
24338;DHT22;12457;50.832;4.346;2024-03-08T15:59:42;13.20;94.80